sensor_id;sensor_type;location;lat;lon;timestamp;pressure;altitude;pressure_sealevel;temperature;humidity
55456;BME280;63021;52.836;6.376;2023-06-10T00:01:07;101738.75;;;18.16;51.96
55456;BME280;63021;52.836;6.376;2023-06-10T00:03:32;101743.44;;;18.14;51.61
55456;BME280;63021;52.836;6.376;2023-06-10T00:05:58;101744.66;;;18.12;51.43
55456;BME280;63021;52.836;6.376;2023-06-10T00:08:23;101736.25;;;18.07;52.01
55456;BME280;63021;52.836;6.376;2023-06-10T00:10:49;101742.34;;;18.00;51.61
55456;BME280;63021;52.836;6.376;2023-06-10T00:13:15;101748.75;;;17.99;51.47
55456;BME280;63021;52.836;6.376;2023-06-10T00:15:41;101747.59;;;17.94;51.65
55456;BME280;63021;52.836;6.376;2023-06-10T00:18:07;101755.66;;;17.94;51.62
55456;BME280;63021;52.836;6.376;2023-06-10T00:20:35;101758.03;;;17.89;52.41
55456;BME280;63021;52.836;6.376;2023-06-10T00:23:03;101749.94;;;17.89;51.92
55456;BME280;63021;52.836;6.376;2023-06-10T00:25:28;101740.88;;;17.81;52.05
55456;BME280;63021;52.836;6.376;2023-06-10T00:27:55;101747.25;;;17.80;52.41
55456;BME280;63021;52.836;6.376;2023-06-10T00:30:20;101745.09;;;17.76;52.45
55456;BME280;63021;52.836;6.376;2023-06-10T00:32:46;101755.69;;;17.77;51.97
55456;BME280;63021;52.836;6.376;2023-06-10T00:35:12;101747.44;;;17.71;52.54
55456;BME280;63021;52.836;6.376;2023-06-10T00:37:37;101745.28;;;17.66;52.73
55456;BME280;63021;52.836;6.376;2023-06-10T00:40:03;101755.06;;;17.67;52.57
55456;BME280;63021;52.836;6.376;2023-06-10T00:42:29;101745.81;;;17.61;52.47
55456;BME280;63021;52.836;6.376;2023-06-10T00:44:55;101744.47;;;17.57;52.56
55456;BME280;63021;52.836;6.376;2023-06-10T00:47:20;101746.28;;;17.57;52.65
55456;BME280;63021;52.836;6.376;2023-06-10T00:49:46;101755.41;;;17.56;52.72
55456;BME280;63021;52.836;6.376;2023-06-10T00:52:13;101747.81;;;17.51;53.01
55456;BME280;63021;52.836;6.376;2023-06-10T00:54:39;101753.38;;;17.49;52.90
55456;BME280;63021;52.836;6.376;2023-06-10T00:57:05;101741.13;;;17.47;52.90
55456;BME280;63021;52.836;6.376;2023-06-10T00:59:31;101742.28;;;17.44;53.28
55456;BME280;63021;52.836;6.376;2023-06-10T01:01:57;101750.19;;;17.46;53.32
55456;BME280;63021;52.836;6.376;2023-06-10T01:04:23;101746.16;;;17.42;53.24
55456;BME280;63021;52.836;6.376;2023-06-10T01:09:47;101752.22;;;17.36;53.25
55456;BME280;63021;52.836;6.376;2023-06-10T01:12:41;101754.94;;;17.36;53.68
55456;BME280;63021;52.836;6.376;2023-06-10T01:15:16;101758.28;;;17.29;53.48
55456;BME280;63021;52.836;6.376;2023-06-10T01:17:58;101754.75;;;17.29;53.61
55456;BME280;63021;52.836;6.376;2023-06-10T01:20:26;101749.03;;;17.24;53.10
55456;BME280;63021;52.836;6.376;2023-06-10T01:22:53;101753.91;;;17.20;53.80
55456;BME280;63021;52.836;6.376;2023-06-10T01:25:21;101759.13;;;17.22;53.83
55456;BME280;63021;52.836;6.376;2023-06-10T01:27:54;101755.25;;;17.16;54.01
55456;BME280;63021;52.836;6.376;2023-06-10T01:30:25;101754.78;;;17.12;54.07
55456;BME280;63021;52.836;6.376;2023-06-10T01:32:55;101755.06;;;17.09;53.78
55456;BME280;63021;52.836;6.376;2023-06-10T01:35:25;101752.56;;;17.08;54.33
55456;BME280;63021;52.836;6.376;2023-06-10T01:37:53;101756.28;;;17.07;54.58
55456;BME280;63021;52.836;6.376;2023-06-10T01:40:20;101755.75;;;17.03;54.73
55456;BME280;63021;52.836;6.376;2023-06-10T01:42:46;101760.78;;;16.98;54.28
55456;BME280;63021;52.836;6.376;2023-06-10T01:45:11;101748.53;;;16.95;54.56
55456;BME280;63021;52.836;6.376;2023-06-10T01:47:37;101752.41;;;16.93;54.55
55456;BME280;63021;52.836;6.376;2023-06-10T01:50:02;101761.47;;;16.92;54.48
55456;BME280;63021;52.836;6.376;2023-06-10T01:52:28;101758.28;;;16.88;54.40
55456;BME280;63021;52.836;6.376;2023-06-10T01:54:53;101763.28;;;16.83;54.44
55456;BME280;63021;52.836;6.376;2023-06-10T01:57:18;101770.50;;;16.83;54.19
55456;BME280;63021;52.836;6.376;2023-06-10T01:59:44;101769.50;;;16.75;54.19
55456;BME280;63021;52.836;6.376;2023-06-10T02:02:11;101774.88;;;16.75;54.36
55456;BME280;63021;52.836;6.376;2023-06-10T02:04:37;101771.16;;;16.68;54.79
55456;BME280;63021;52.836;6.376;2023-06-10T02:07:03;101779.88;;;16.70;54.58
55456;BME280;63021;52.836;6.376;2023-06-10T02:09:30;101773.16;;;16.66;54.74
55456;BME280;63021;52.836;6.376;2023-06-10T02:11:56;101779.19;;;16.60;55.16
55456;BME280;63021;52.836;6.376;2023-06-10T02:14:21;101780.19;;;16.59;54.61
55456;BME280;63021;52.836;6.376;2023-06-10T02:16:47;101778.81;;;16.55;55.16
55456;BME280;63021;52.836;6.376;2023-06-10T02:19:13;101782.53;;;16.54;55.40
55456;BME280;63021;52.836;6.376;2023-06-10T02:21:38;101781.19;;;16.50;55.11
55456;BME280;63021;52.836;6.376;2023-06-10T02:24:04;101784.88;;;16.49;55.57
55456;BME280;63021;52.836;6.376;2023-06-10T02:26:30;101777.47;;;16.42;55.78
55456;BME280;63021;52.836;6.376;2023-06-10T02:28:55;101783.00;;;16.41;55.46
55456;BME280;63021;52.836;6.376;2023-06-10T02:31:21;101785.16;;;16.37;55.12
55456;BME280;63021;52.836;6.376;2023-06-10T02:33:46;101787.19;;;16.35;55.19
55456;BME280;63021;52.836;6.376;2023-06-10T02:36:11;101789.16;;;16.33;56.00
55456;BME280;63021;52.836;6.376;2023-06-10T02:38:39;101792.00;;;16.32;55.46
55456;BME280;63021;52.836;6.376;2023-06-10T02:41:05;101785.44;;;16.26;55.47
55456;BME280;63021;52.836;6.376;2023-06-10T02:43:31;101785.59;;;16.24;55.88
55456;BME280;63021;52.836;6.376;2023-06-10T02:45:56;101777.03;;;16.21;55.35
55456;BME280;63021;52.836;6.376;2023-06-10T02:48:23;101779.19;;;16.17;56.08
55456;BME280;63021;52.836;6.376;2023-06-10T02:50:49;101784.72;;;16.16;55.69
55456;BME280;63021;52.836;6.376;2023-06-10T02:53:15;101781.22;;;16.15;55.74
55456;BME280;63021;52.836;6.376;2023-06-10T02:55:41;101785.22;;;16.11;55.94
55456;BME280;63021;52.836;6.376;2023-06-10T02:58:08;101791.41;;;16.11;56.10
55456;BME280;63021;52.836;6.376;2023-06-10T03:00:33;101784.69;;;16.07;56.32
55456;BME280;63021;52.836;6.376;2023-06-10T03:02:58;101787.38;;;16.07;55.61
55456;BME280;63021;52.836;6.376;2023-06-10T03:05:29;101783.34;;;16.03;56.17
55456;BME280;63021;52.836;6.376;2023-06-10T03:07:54;101786.16;;;16.02;55.97
55456;BME280;63021;52.836;6.376;2023-06-10T03:10:20;101784.81;;;15.98;55.75
55456;BME280;63021;52.836;6.376;2023-06-10T03:12:45;101785.97;;;15.95;56.31
55456;BME280;63021;52.836;6.376;2023-06-10T03:15:11;101786.31;;;15.92;55.97
55456;BME280;63021;52.836;6.376;2023-06-10T03:17:36;101786.47;;;15.90;56.38
55456;BME280;63021;52.836;6.376;2023-06-10T03:20:02;101800.88;;;15.89;56.47
55456;BME280;63021;52.836;6.376;2023-06-10T03:22:30;101790.63;;;15.85;56.51
55456;BME280;63021;52.836;6.376;2023-06-10T03:24:56;101793.63;;;15.82;56.24
55456;BME280;63021;52.836;6.376;2023-06-10T03:27:22;101797.16;;;15.82;56.26
55456;BME280;63021;52.836;6.376;2023-06-10T03:29:47;101795.63;;;15.80;56.81
55456;BME280;63021;52.836;6.376;2023-06-10T03:32:13;101795.06;;;15.76;56.22
55456;BME280;63021;52.836;6.376;2023-06-10T03:34:38;101795.53;;;15.71;56.56
55456;BME280;63021;52.836;6.376;2023-06-10T03:37:04;101799.22;;;15.70;57.00
55456;BME280;63021;52.836;6.376;2023-06-10T03:39:30;101794.31;;;15.66;57.15
55456;BME280;63021;52.836;6.376;2023-06-10T03:41:55;101793.63;;;15.64;56.79
55456;BME280;63021;52.836;6.376;2023-06-10T03:44:26;101799.84;;;15.64;56.65
55456;BME280;63021;52.836;6.376;2023-06-10T03:46:53;101797.78;;;15.58;57.21
55456;BME280;63021;52.836;6.376;2023-06-10T03:49:19;101803.81;;;15.60;57.54
55456;BME280;63021;52.836;6.376;2023-06-10T03:51:44;101808.69;;;15.56;57.63
55456;BME280;63021;52.836;6.376;2023-06-10T03:54:10;101797.41;;;15.53;57.33
55456;BME280;63021;52.836;6.376;2023-06-10T03:56:36;101803.78;;;15.52;57.76
55456;BME280;63021;52.836;6.376;2023-06-10T03:59:01;101809.16;;;15.52;57.46
55456;BME280;63021;52.836;6.376;2023-06-10T04:01:28;101806.47;;;15.52;57.86
55456;BME280;63021;52.836;6.376;2023-06-10T04:03:53;101810.97;;;15.51;57.76
55456;BME280;63021;52.836;6.376;2023-06-10T04:06:19;101808.44;;;15.50;58.06
55456;BME280;63021;52.836;6.376;2023-06-10T04:08:46;101810.00;;;15.52;57.48
55456;BME280;63021;52.836;6.376;2023-06-10T04:11:12;101807.47;;;15.51;57.76
55456;BME280;63021;52.836;6.376;2023-06-10T04:13:38;101808.13;;;15.53;57.68
55456;BME280;63021;52.836;6.376;2023-06-10T04:16:03;101819.03;;;15.51;57.71
55456;BME280;63021;52.836;6.376;2023-06-10T04:18:29;101805.78;;;15.50;58.49
55456;BME280;63021;52.836;6.376;2023-06-10T04:20:54;101818.75;;;15.54;57.92
55456;BME280;63021;52.836;6.376;2023-06-10T04:23:20;101815.03;;;15.55;58.03
55456;BME280;63021;52.836;6.376;2023-06-10T04:25:46;101818.59;;;15.56;58.37
55456;BME280;63021;52.836;6.376;2023-06-10T04:28:12;101815.03;;;15.55;58.71
55456;BME280;63021;52.836;6.376;2023-06-10T04:30:37;101817.56;;;15.57;58.81
55456;BME280;63021;52.836;6.376;2023-06-10T04:33:02;101812.91;;;15.59;58.82
55456;BME280;63021;52.836;6.376;2023-06-10T04:35:28;101810.72;;;15.63;58.88
55456;BME280;63021;52.836;6.376;2023-06-10T04:37:53;101817.78;;;15.64;58.67
55456;BME280;63021;52.836;6.376;2023-06-10T04:40:19;101813.81;;;15.68;58.97
55456;BME280;63021;52.836;6.376;2023-06-10T04:42:45;101819.53;;;15.73;58.93
55456;BME280;63021;52.836;6.376;2023-06-10T04:45:11;101825.97;;;15.80;59.34
55456;BME280;63021;52.836;6.376;2023-06-10T04:47:37;101820.47;;;15.82;59.39
55456;BME280;63021;52.836;6.376;2023-06-10T04:50:02;101824.22;;;15.89;59.67
55456;BME280;63021;52.836;6.376;2023-06-10T04:52:28;101822.88;;;15.93;59.49
55456;BME280;63021;52.836;6.376;2023-06-10T04:54:54;101831.16;;;16.00;59.53
55456;BME280;63021;52.836;6.376;2023-06-10T04:57:20;101827.97;;;16.04;59.55
55456;BME280;63021;52.836;6.376;2023-06-10T04:59:46;101837.09;;;16.11;59.93
55456;BME280;63021;52.836;6.376;2023-06-10T05:02:12;101832.91;;;16.17;59.45
55456;BME280;63021;52.836;6.376;2023-06-10T05:04:37;101835.28;;;16.20;59.62
55456;BME280;63021;52.836;6.376;2023-06-10T05:07:03;101829.47;;;16.25;59.58
55456;BME280;63021;52.836;6.376;2023-06-10T05:09:29;101831.66;;;16.30;59.71
55456;BME280;63021;52.836;6.376;2023-06-10T05:11:54;101826.63;;;16.35;60.36
55456;BME280;63021;52.836;6.376;2023-06-10T05:14:19;101838.28;;;16.43;59.59
55456;BME280;63021;52.836;6.376;2023-06-10T05:16:46;101829.56;;;16.50;59.97
55456;BME280;63021;52.836;6.376;2023-06-10T05:19:12;101831.75;;;16.54;59.67
55456;BME280;63021;52.836;6.376;2023-06-10T05:21:37;101838.00;;;16.63;59.58
55456;BME280;63021;52.836;6.376;2023-06-10T05:24:03;101843.56;;;16.70;60.05
55456;BME280;63021;52.836;6.376;2023-06-10T05:26:28;101843.09;;;16.74;59.87
55456;BME280;63021;52.836;6.376;2023-06-10T05:28:56;101843.59;;;16.78;59.83
55456;BME280;63021;52.836;6.376;2023-06-10T05:31:22;101845.81;;;16.83;60.06
55456;BME280;63021;52.836;6.376;2023-06-10T05:33:47;101838.09;;;16.88;59.72
55456;BME280;63021;52.836;6.376;2023-06-10T05:36:12;101843.66;;;16.94;59.78
55456;BME280;63021;52.836;6.376;2023-06-10T05:38:38;101843.00;;;17.01;59.91
55456;BME280;63021;52.836;6.376;2023-06-10T05:41:03;101841.50;;;17.06;59.85
55456;BME280;63021;52.836;6.376;2023-06-10T05:43:29;101845.38;;;17.12;59.99
55456;BME280;63021;52.836;6.376;2023-06-10T05:45:54;101849.94;;;17.20;59.35
55456;BME280;63021;52.836;6.376;2023-06-10T05:48:19;101845.91;;;17.24;59.06
55456;BME280;63021;52.836;6.376;2023-06-10T05:50:45;101842.91;;;17.27;59.74
55456;BME280;63021;52.836;6.376;2023-06-10T05:53:16;101840.19;;;17.35;58.72
55456;BME280;63021;52.836;6.376;2023-06-10T05:55:45;101839.72;;;17.40;59.49
55456;BME280;63021;52.836;6.376;2023-06-10T05:58:11;101840.56;;;17.48;59.34
55456;BME280;63021;52.836;6.376;2023-06-10T06:00:38;101840.03;;;17.53;59.68
55456;BME280;63021;52.836;6.376;2023-06-10T06:03:06;101832.44;;;17.57;59.21
55456;BME280;63021;52.836;6.376;2023-06-10T06:05:32;101825.06;;;17.59;58.83
55456;BME280;63021;52.836;6.376;2023-06-10T06:08:18;101834.63;;;17.70;58.69
55456;BME280;63021;52.836;6.376;2023-06-10T06:10:47;101832.09;;;17.76;58.53
55456;BME280;63021;52.836;6.376;2023-06-10T06:13:15;101832.28;;;17.83;58.30
55456;BME280;63021;52.836;6.376;2023-06-10T06:15:40;101828.22;;;17.87;58.50
55456;BME280;63021;52.836;6.376;2023-06-10T06:18:06;101833.13;;;17.92;58.78
55456;BME280;63021;52.836;6.376;2023-06-10T06:20:31;101830.56;;;17.98;58.97
55456;BME280;63021;52.836;6.376;2023-06-10T06:22:56;101821.81;;;18.05;58.76
55456;BME280;63021;52.836;6.376;2023-06-10T06:25:22;101822.13;;;18.10;58.31
55456;BME280;63021;52.836;6.376;2023-06-10T06:27:48;101827.31;;;18.20;58.66
55456;BME280;63021;52.836;6.376;2023-06-10T06:30:13;101823.91;;;18.26;58.20
55456;BME280;63021;52.836;6.376;2023-06-10T06:32:39;101819.22;;;18.28;58.17
55456;BME280;63021;52.836;6.376;2023-06-10T06:35:04;101824.25;;;18.31;58.51
55456;BME280;63021;52.836;6.376;2023-06-10T06:37:33;101833.66;;;18.43;58.08
55456;BME280;63021;52.836;6.376;2023-06-10T06:39:58;101827.72;;;18.48;57.95
55456;BME280;63021;52.836;6.376;2023-06-10T06:42:24;101830.41;;;18.56;57.48
55456;BME280;63021;52.836;6.376;2023-06-10T06:44:49;101834.06;;;18.63;58.03
55456;BME280;63021;52.836;6.376;2023-06-10T06:47:16;101835.50;;;18.74;57.53
55456;BME280;63021;52.836;6.376;2023-06-10T06:49:47;101833.78;;;18.81;57.38
55456;BME280;63021;52.836;6.376;2023-06-10T06:52:14;101828.38;;;18.90;57.28
55456;BME280;63021;52.836;6.376;2023-06-10T06:54:40;101831.03;;;18.98;57.01
55456;BME280;63021;52.836;6.376;2023-06-10T06:57:05;101839.91;;;19.07;56.43
55456;BME280;63021;52.836;6.376;2023-06-10T06:59:32;101830.44;;;19.11;56.15
55456;BME280;63021;52.836;6.376;2023-06-10T07:01:57;101829.91;;;19.15;56.05
55456;BME280;63021;52.836;6.376;2023-06-10T07:04:23;101837.28;;;19.21;55.96
55456;BME280;63021;52.836;6.376;2023-06-10T07:06:48;101840.09;;;19.28;55.75
55456;BME280;63021;52.836;6.376;2023-06-10T07:09:14;101831.44;;;19.33;55.80
55456;BME280;63021;52.836;6.376;2023-06-10T07:11:40;101845.53;;;19.43;55.16
55456;BME280;63021;52.836;6.376;2023-06-10T07:14:06;101838.56;;;19.49;55.05
55456;BME280;63021;52.836;6.376;2023-06-10T07:16:32;101838.31;;;19.59;55.06
55456;BME280;63021;52.836;6.376;2023-06-10T07:18:57;101836.22;;;19.69;55.10
55456;BME280;63021;52.836;6.376;2023-06-10T07:21:23;101839.84;;;19.76;54.92
55456;BME280;63021;52.836;6.376;2023-06-10T07:23:49;101835.41;;;19.83;54.27
55456;BME280;63021;52.836;6.376;2023-06-10T07:26:14;101835.03;;;19.86;53.98
55456;BME280;63021;52.836;6.376;2023-06-10T07:28:40;101840.38;;;19.95;54.31
55456;BME280;63021;52.836;6.376;2023-06-10T07:31:07;101847.53;;;20.02;53.87
55456;BME280;63021;52.836;6.376;2023-06-10T07:33:33;101839.91;;;20.06;53.91
55456;BME280;63021;52.836;6.376;2023-06-10T07:35:58;101837.97;;;20.15;54.06
55456;BME280;63021;52.836;6.376;2023-06-10T07:38:25;101834.31;;;20.22;53.64
55456;BME280;63021;52.836;6.376;2023-06-10T07:40:50;101843.16;;;20.31;52.74
55456;BME280;63021;52.836;6.376;2023-06-10T07:43:16;101851.38;;;20.38;52.10
55456;BME280;63021;52.836;6.376;2023-06-10T07:45:42;101851.66;;;20.43;52.05
55456;BME280;63021;52.836;6.376;2023-06-10T07:48:08;101851.09;;;20.48;52.47
55456;BME280;63021;52.836;6.376;2023-06-10T07:50:33;101846.59;;;20.55;52.38
55456;BME280;63021;52.836;6.376;2023-06-10T07:52:59;101843.34;;;20.59;52.48
55456;BME280;63021;52.836;6.376;2023-06-10T07:55:24;101845.97;;;20.68;51.79
55456;BME280;63021;52.836;6.376;2023-06-10T07:57:51;101849.59;;;20.75;52.52
55456;BME280;63021;52.836;6.376;2023-06-10T08:00:17;101842.59;;;20.81;51.75
55456;BME280;63021;52.836;6.376;2023-06-10T08:02:43;101847.41;;;20.85;50.98
55456;BME280;63021;52.836;6.376;2023-06-10T08:05:08;101845.00;;;20.90;50.78
55456;BME280;63021;52.836;6.376;2023-06-10T08:07:34;101842.72;;;20.94;51.84
55456;BME280;63021;52.836;6.376;2023-06-10T08:10:00;101851.56;;;21.03;51.20
55456;BME280;63021;52.836;6.376;2023-06-10T08:12:25;101844.53;;;21.08;50.60
55456;BME280;63021;52.836;6.376;2023-06-10T08:14:51;101844.41;;;21.17;50.52
55456;BME280;63021;52.836;6.376;2023-06-10T08:17:16;101846.34;;;21.23;50.16
55456;BME280;63021;52.836;6.376;2023-06-10T08:19:42;101848.47;;;21.27;50.61
55456;BME280;63021;52.836;6.376;2023-06-10T08:22:07;101860.66;;;21.38;50.39
55456;BME280;63021;52.836;6.376;2023-06-10T08:24:32;101850.25;;;21.42;50.09
55456;BME280;63021;52.836;6.376;2023-06-10T08:26:58;101859.69;;;21.46;50.48
55456;BME280;63021;52.836;6.376;2023-06-10T08:29:23;101857.44;;;21.50;49.82
55456;BME280;63021;52.836;6.376;2023-06-10T08:31:49;101854.63;;;21.58;49.53
55456;BME280;63021;52.836;6.376;2023-06-10T08:34:14;101855.69;;;21.63;49.78
55456;BME280;63021;52.836;6.376;2023-06-10T08:36:40;101850.53;;;21.69;49.23
55456;BME280;63021;52.836;6.376;2023-06-10T08:39:05;101849.53;;;21.76;49.18
55456;BME280;63021;52.836;6.376;2023-06-10T08:41:35;101852.75;;;21.87;49.44
55456;BME280;63021;52.836;6.376;2023-06-10T08:44:22;101855.97;;;21.97;49.17
55456;BME280;63021;52.836;6.376;2023-06-10T08:46:53;101850.56;;;22.04;49.13
55456;BME280;63021;52.836;6.376;2023-06-10T08:49:21;101843.50;;;22.09;49.06
55456;BME280;63021;52.836;6.376;2023-06-10T08:51:55;101851.75;;;22.23;47.94
55456;BME280;63021;52.836;6.376;2023-06-10T08:54:25;101846.09;;;22.24;47.37
55456;BME280;63021;52.836;6.376;2023-06-10T08:56:54;101841.38;;;22.33;46.36
55456;BME280;63021;52.836;6.376;2023-06-10T08:59:21;101837.66;;;22.34;45.99
55456;BME280;63021;52.836;6.376;2023-06-10T09:01:47;101836.00;;;22.40;45.83
55456;BME280;63021;52.836;6.376;2023-06-10T09:04:13;101824.75;;;22.43;45.33
55456;BME280;63021;52.836;6.376;2023-06-10T09:06:39;101840.19;;;22.49;45.27
55456;BME280;63021;52.836;6.376;2023-06-10T09:09:05;101830.19;;;22.49;45.03
55456;BME280;63021;52.836;6.376;2023-06-10T09:11:31;101845.66;;;22.56;45.30
55456;BME280;63021;52.836;6.376;2023-06-10T09:13:57;101836.91;;;22.60;44.84
55456;BME280;63021;52.836;6.376;2023-06-10T09:16:24;101839.00;;;22.65;45.07
55456;BME280;63021;52.836;6.376;2023-06-10T09:18:50;101838.19;;;22.71;45.03
55456;BME280;63021;52.836;6.376;2023-06-10T09:21:24;101836.53;;;22.77;44.61
55456;BME280;63021;52.836;6.376;2023-06-10T09:23:50;101827.81;;;22.81;44.43
55456;BME280;63021;52.836;6.376;2023-06-10T09:26:16;101828.22;;;22.85;44.33
55456;BME280;63021;52.836;6.376;2023-06-10T09:28:48;101835.97;;;22.95;43.39
55456;BME280;63021;52.836;6.376;2023-06-10T09:31:16;101830.75;;;23.00;43.16
55456;BME280;63021;52.836;6.376;2023-06-10T09:33:44;101829.09;;;23.06;43.14
55456;BME280;63021;52.836;6.376;2023-06-10T09:36:10;101830.34;;;23.10;42.91
55456;BME280;63021;52.836;6.376;2023-06-10T09:38:36;101827.91;;;23.15;41.94
55456;BME280;63021;52.836;6.376;2023-06-10T09:41:03;101826.22;;;23.21;41.93
55456;BME280;63021;52.836;6.376;2023-06-10T09:43:43;101829.16;;;23.26;41.41
55456;BME280;63021;52.836;6.376;2023-06-10T09:46:16;101825.41;;;23.33;41.92
55456;BME280;63021;52.836;6.376;2023-06-10T09:48:45;101822.88;;;23.39;41.91
55456;BME280;63021;52.836;6.376;2023-06-10T09:51:14;101822.28;;;23.43;42.14
55456;BME280;63021;52.836;6.376;2023-06-10T09:53:42;101826.66;;;23.51;41.90
55456;BME280;63021;52.836;6.376;2023-06-10T09:56:07;101828.53;;;23.57;41.23
55456;BME280;63021;52.836;6.376;2023-06-10T09:58:34;101829.34;;;23.64;41.22
55456;BME280;63021;52.836;6.376;2023-06-10T10:01:04;101824.13;;;23.69;40.96
55456;BME280;63021;52.836;6.376;2023-06-10T10:03:30;101825.56;;;23.79;40.83
55456;BME280;63021;52.836;6.376;2023-06-10T10:05:59;101824.56;;;23.86;40.41
55456;BME280;63021;52.836;6.376;2023-06-10T10:08:28;101817.44;;;23.92;40.76
55456;BME280;63021;52.836;6.376;2023-06-10T10:10:55;101818.06;;;24.01;40.75
55456;BME280;63021;52.836;6.376;2023-06-10T10:13:21;101821.59;;;24.08;39.91
55456;BME280;63021;52.836;6.376;2023-06-10T10:15:47;101815.28;;;24.14;40.01
55456;BME280;63021;52.836;6.376;2023-06-10T10:18:17;101815.88;;;24.23;38.69
55456;BME280;63021;52.836;6.376;2023-06-10T10:20:50;101809.34;;;24.31;38.46
55456;BME280;63021;52.836;6.376;2023-06-10T10:23:26;101818.16;;;24.39;38.91
55456;BME280;63021;52.836;6.376;2023-06-10T10:25:55;101801.97;;;24.45;38.34
55456;BME280;63021;52.836;6.376;2023-06-10T10:28:24;101804.47;;;24.53;37.84
55456;BME280;63021;52.836;6.376;2023-06-10T10:30:53;101800.69;;;24.61;38.41
55456;BME280;63021;52.836;6.376;2023-06-10T10:33:22;101807.94;;;24.73;37.76
55456;BME280;63021;52.836;6.376;2023-06-10T10:35:51;101809.81;;;24.80;37.72
55456;BME280;63021;52.836;6.376;2023-06-10T10:38:18;101805.34;;;24.85;36.84
55456;BME280;63021;52.836;6.376;2023-06-10T10:40:45;101792.75;;;24.91;35.23
55456;BME280;63021;52.836;6.376;2023-06-10T10:43:11;101806.97;;;25.00;35.01
55456;BME280;63021;52.836;6.376;2023-06-10T10:45:37;101792.03;;;25.02;34.87
55456;BME280;63021;52.836;6.376;2023-06-10T10:48:08;101793.22;;;25.13;35.08
55456;BME280;63021;52.836;6.376;2023-06-10T10:50:37;101790.47;;;25.20;34.75
55456;BME280;63021;52.836;6.376;2023-06-10T10:53:05;101790.78;;;25.30;34.32
55456;BME280;63021;52.836;6.376;2023-06-10T10:55:31;101787.78;;;25.38;33.59
55456;BME280;63021;52.836;6.376;2023-06-10T10:58:07;101781.03;;;25.48;34.55
55456;BME280;63021;52.836;6.376;2023-06-10T11:00:35;101780.66;;;25.63;35.16
55456;BME280;63021;52.836;6.376;2023-06-10T11:03:08;101779.91;;;25.74;34.53
55456;BME280;63021;52.836;6.376;2023-06-10T11:05:39;101771.44;;;25.82;34.17
55456;BME280;63021;52.836;6.376;2023-06-10T11:08:07;101767.09;;;25.93;32.98
55456;BME280;63021;52.836;6.376;2023-06-10T11:10:38;101772.69;;;26.05;32.05
55456;BME280;63021;52.836;6.376;2023-06-10T11:13:14;101773.44;;;26.12;31.67
55456;BME280;63021;52.836;6.376;2023-06-10T11:15:44;101766.25;;;26.18;31.00
55456;BME280;63021;52.836;6.376;2023-06-10T11:18:28;101756.06;;;26.25;30.86
55456;BME280;63021;52.836;6.376;2023-06-10T11:21:02;101752.78;;;26.35;30.75
55456;BME280;63021;52.836;6.376;2023-06-10T11:28:38;101757.41;;;26.65;30.48
55456;BME280;63021;52.836;6.376;2023-06-10T11:31:03;101753.78;;;26.71;30.67
55456;BME280;63021;52.836;6.376;2023-06-10T11:33:29;101746.91;;;26.80;30.01
55456;BME280;63021;52.836;6.376;2023-06-10T11:35:55;101758.09;;;26.90;30.41
55456;BME280;63021;52.836;6.376;2023-06-10T11:38:21;101752.88;;;27.01;30.61
55456;BME280;63021;52.836;6.376;2023-06-10T11:40:50;101746.38;;;27.13;29.77
55456;BME280;63021;52.836;6.376;2023-06-10T11:43:19;101752.56;;;27.21;30.10
55456;BME280;63021;52.836;6.376;2023-06-10T11:45:45;101749.22;;;27.30;29.73
55456;BME280;63021;52.836;6.376;2023-06-10T11:48:17;101745.34;;;27.38;28.87
55456;BME280;63021;52.836;6.376;2023-06-10T11:50:42;101746.41;;;27.49;28.84
55456;BME280;63021;52.836;6.376;2023-06-10T11:53:08;101742.47;;;27.57;28.21
55456;BME280;63021;52.836;6.376;2023-06-10T11:55:47;101748.78;;;27.69;27.56
55456;BME280;63021;52.836;6.376;2023-06-10T11:58:17;101748.41;;;27.77;28.00
55456;BME280;63021;52.836;6.376;2023-06-10T12:00:46;101751.00;;;27.84;27.15
55456;BME280;63021;52.836;6.376;2023-06-10T12:03:12;101734.13;;;27.87;26.78
55456;BME280;63021;52.836;6.376;2023-06-10T12:05:38;101739.09;;;28.02;26.17
55456;BME280;63021;52.836;6.376;2023-06-10T12:08:11;101741.22;;;28.12;25.67
55456;BME280;63021;52.836;6.376;2023-06-10T12:10:40;101740.59;;;28.22;26.42
55456;BME280;63021;52.836;6.376;2023-06-10T12:13:06;101741.97;;;28.24;25.92
55456;BME280;63021;52.836;6.376;2023-06-10T12:15:33;101731.97;;;28.30;25.75
55456;BME280;63021;52.836;6.376;2023-06-10T12:17:58;101735.75;;;28.41;25.35
55456;BME280;63021;52.836;6.376;2023-06-10T12:20:26;101731.75;;;28.48;25.27
55456;BME280;63021;52.836;6.376;2023-06-10T12:22:55;101745.38;;;28.60;25.53
55456;BME280;63021;52.836;6.376;2023-06-10T12:25:30;101735.63;;;28.64;25.02
55456;BME280;63021;52.836;6.376;2023-06-10T12:27:57;101732.25;;;28.74;25.06
55456;BME280;63021;52.836;6.376;2023-06-10T12:30:25;101733.53;;;28.83;24.39
55456;BME280;63021;52.836;6.376;2023-06-10T12:32:52;101725.72;;;28.92;23.69
55456;BME280;63021;52.836;6.376;2023-06-10T12:35:20;101731.59;;;29.01;23.03
55456;BME280;63021;52.836;6.376;2023-06-10T12:38:00;101732.84;;;29.10;22.41
55456;BME280;63021;52.836;6.376;2023-06-10T12:40:33;101723.38;;;29.18;21.04
55456;BME280;63021;52.836;6.376;2023-06-10T12:43:00;101714.66;;;29.21;20.56
55456;BME280;63021;52.836;6.376;2023-06-10T12:45:32;101715.31;;;29.28;19.07
55456;BME280;63021;52.836;6.376;2023-06-10T12:48:09;101722.53;;;29.34;19.90
55456;BME280;63021;52.836;6.376;2023-06-10T12:50:36;101716.03;;;29.41;20.29
55456;BME280;63021;52.836;6.376;2023-06-10T12:53:05;101713.69;;;29.49;20.52
55456;BME280;63021;52.836;6.376;2023-06-10T12:55:31;101709.09;;;29.55;20.96
55456;BME280;63021;52.836;6.376;2023-06-10T12:57:57;101712.47;;;29.62;20.43